sensor_id;sensor_type;location;lat;lon;timestamp;P1;durP1;ratioP1;P2;durP2;ratioP2
45103;SDS011;30865;51.288;4.572;2023-05-15T00:01:37;11.82;;;5.55;;
45103;SDS011;30865;51.288;4.572;2023-05-15T00:04:03;7.72;;;4.70;;
45103;SDS011;30865;51.288;4.572;2023-05-15T00:06:29;8.60;;;4.82;;
45103;SDS011;30865;51.288;4.572;2023-05-15T00:08:54;11.15;;;5.70;;
45103;SDS011;30865;51.288;4.572;2023-05-15T00:11:20;9.13;;;5.28;;
45103;SDS011;30865;51.288;4.572;2023-05-15T00:13:47;7.75;;;5.38;;
45103;SDS011;30865;51.288;4.572;2023-05-15T00:16:13;8.75;;;5.55;;
45103;SDS011;30865;51.288;4.572;2023-05-15T00:18:39;8.80;;;5.05;;
45103;SDS011;30865;51.288;4.572;2023-05-15T00:21:04;9.93;;;5.18;;
45103;SDS011;30865;51.288;4.572;2023-05-15T00:23:30;8.10;;;4.80;;
45103;SDS011;30865;51.288;4.572;2023-05-15T00:25:55;6.38;;;4.47;;
45103;SDS011;30865;51.288;4.572;2023-05-15T00:28:21;8.80;;;5.10;;
45103;SDS011;30865;51.288;4.572;2023-05-15T00:30:46;10.95;;;5.53;;
45103;SDS011;30865;51.288;4.572;2023-05-15T00:33:12;9.43;;;5.55;;
45103;SDS011;30865;51.288;4.572;2023-05-15T00:35:38;14.20;;;5.70;;
45103;SDS011;30865;51.288;4.572;2023-05-15T00:38:03;10.63;;;5.75;;
45103;SDS011;30865;51.288;4.572;2023-05-15T00:40:29;9.77;;;5.50;;
45103;SDS011;30865;51.288;4.572;2023-05-15T00:42:55;8.98;;;5.50;;
45103;SDS011;30865;51.288;4.572;2023-05-15T00:45:22;12.65;;;6.28;;
45103;SDS011;30865;51.288;4.572;2023-05-15T00:47:49;10.32;;;6.03;;
45103;SDS011;30865;51.288;4.572;2023-05-15T00:50:15;8.55;;;5.35;;
45103;SDS011;30865;51.288;4.572;2023-05-15T00:52:41;11.32;;;5.25;;
45103;SDS011;30865;51.288;4.572;2023-05-15T00:55:07;12.77;;;5.40;;
45103;SDS011;30865;51.288;4.572;2023-05-15T00:57:33;10.63;;;5.53;;
45103;SDS011;30865;51.288;4.572;2023-05-15T00:59:59;9.20;;;5.18;;
45103;SDS011;30865;51.288;4.572;2023-05-15T01:02:28;9.00;;;4.93;;
45103;SDS011;30865;51.288;4.572;2023-05-15T01:04:54;8.18;;;5.10;;
45103;SDS011;30865;51.288;4.572;2023-05-15T01:07:19;8.52;;;5.25;;
45103;SDS011;30865;51.288;4.572;2023-05-15T01:09:45;10.73;;;6.32;;
45103;SDS011;30865;51.288;4.572;2023-05-15T01:12:13;9.90;;;5.38;;
45103;SDS011;30865;51.288;4.572;2023-05-15T01:14:40;9.50;;;5.32;;
45103;SDS011;30865;51.288;4.572;2023-05-15T01:17:06;10.65;;;6.03;;
45103;SDS011;30865;51.288;4.572;2023-05-15T01:19:32;9.85;;;5.45;;
45103;SDS011;30865;51.288;4.572;2023-05-15T01:22:10;9.68;;;4.95;;
45103;SDS011;30865;51.288;4.572;2023-05-15T01:25:06;8.73;;;5.22;;
45103;SDS011;30865;51.288;4.572;2023-05-15T01:28:02;7.50;;;4.60;;
45103;SDS011;30865;51.288;4.572;2023-05-15T01:36:00;6.65;;;3.60;;
45103;SDS011;30865;51.288;4.572;2023-05-15T01:38:50;7.97;;;5.53;;
45103;SDS011;30865;51.288;4.572;2023-05-15T01:41:21;7.40;;;4.55;;
45103;SDS011;30865;51.288;4.572;2023-05-15T01:44:07;8.00;;;4.72;;
45103;SDS011;30865;51.288;4.572;2023-05-15T01:46:44;6.85;;;4.57;;
45103;SDS011;30865;51.288;4.572;2023-05-15T01:49:13;8.30;;;4.97;;
45103;SDS011;30865;51.288;4.572;2023-05-15T01:51:42;7.65;;;4.13;;
45103;SDS011;30865;51.288;4.572;2023-05-15T01:54:09;6.78;;;3.90;;
45103;SDS011;30865;51.288;4.572;2023-05-15T01:56:37;7.45;;;4.65;;
45103;SDS011;30865;51.288;4.572;2023-05-15T01:59:04;5.72;;;4.10;;
45103;SDS011;30865;51.288;4.572;2023-05-15T02:01:33;9.35;;;4.40;;
45103;SDS011;30865;51.288;4.572;2023-05-15T02:04:01;7.50;;;4.40;;
45103;SDS011;30865;51.288;4.572;2023-05-15T02:06:27;6.13;;;4.25;;
45103;SDS011;30865;51.288;4.572;2023-05-15T02:08:56;9.50;;;4.20;;
45103;SDS011;30865;51.288;4.572;2023-05-15T02:11:22;8.18;;;5.20;;
45103;SDS011;30865;51.288;4.572;2023-05-15T02:13:48;13.18;;;4.47;;
45103;SDS011;30865;51.288;4.572;2023-05-15T02:16:14;8.65;;;4.63;;
45103;SDS011;30865;51.288;4.572;2023-05-15T02:18:39;7.28;;;4.50;;
45103;SDS011;30865;51.288;4.572;2023-05-15T02:21:05;7.43;;;5.07;;
45103;SDS011;30865;51.288;4.572;2023-05-15T02:23:31;6.88;;;4.55;;
45103;SDS011;30865;51.288;4.572;2023-05-15T02:26:18;6.78;;;4.75;;
45103;SDS011;30865;51.288;4.572;2023-05-15T02:29:05;7.75;;;5.10;;
45103;SDS011;30865;51.288;4.572;2023-05-15T02:37:48;7.03;;;4.97;;
45103;SDS011;30865;51.288;4.572;2023-05-15T02:40:17;10.07;;;5.65;;
45103;SDS011;30865;51.288;4.572;2023-05-15T02:42:44;6.65;;;5.25;;
45103;SDS011;30865;51.288;4.572;2023-05-15T02:45:11;9.25;;;5.63;;
45103;SDS011;30865;51.288;4.572;2023-05-15T02:47:37;6.63;;;4.82;;
45103;SDS011;30865;51.288;4.572;2023-05-15T02:50:04;9.00;;;6.05;;
45103;SDS011;30865;51.288;4.572;2023-05-15T02:52:31;8.48;;;4.65;;
45103;SDS011;30865;51.288;4.572;2023-05-15T02:54:58;6.95;;;5.03;;
45103;SDS011;30865;51.288;4.572;2023-05-15T02:57:24;6.72;;;4.32;;
45103;SDS011;30865;51.288;4.572;2023-05-15T02:59:51;6.15;;;4.65;;
45103;SDS011;30865;51.288;4.572;2023-05-15T03:02:18;8.63;;;5.28;;
45103;SDS011;30865;51.288;4.572;2023-05-15T03:04:43;7.25;;;4.90;;
45103;SDS011;30865;51.288;4.572;2023-05-15T03:07:09;8.73;;;4.82;;
45103;SDS011;30865;51.288;4.572;2023-05-15T03:09:35;7.97;;;5.05;;
45103;SDS011;30865;51.288;4.572;2023-05-15T03:12:01;7.32;;;5.10;;
45103;SDS011;30865;51.288;4.572;2023-05-15T03:14:26;6.68;;;4.88;;
45103;SDS011;30865;51.288;4.572;2023-05-15T03:16:52;7.63;;;4.72;;
45103;SDS011;30865;51.288;4.572;2023-05-15T03:19:17;7.80;;;5.60;;
45103;SDS011;30865;51.288;4.572;2023-05-15T03:21:43;11.18;;;5.70;;
45103;SDS011;30865;51.288;4.572;2023-05-15T03:24:08;8.38;;;5.15;;
45103;SDS011;30865;51.288;4.572;2023-05-15T03:26:34;9.23;;;5.28;;
45103;SDS011;30865;51.288;4.572;2023-05-15T03:28:59;10.45;;;4.72;;
45103;SDS011;30865;51.288;4.572;2023-05-15T03:31:26;6.57;;;4.03;;
45103;SDS011;30865;51.288;4.572;2023-05-15T03:33:51;8.98;;;4.60;;
45103;SDS011;30865;51.288;4.572;2023-05-15T03:36:17;10.00;;;6.40;;
45103;SDS011;30865;51.288;4.572;2023-05-15T03:38:42;6.88;;;5.22;;
45103;SDS011;30865;51.288;4.572;2023-05-15T03:41:18;10.27;;;5.00;;
45103;SDS011;30865;51.288;4.572;2023-05-15T03:43:43;7.18;;;4.63;;
45103;SDS011;30865;51.288;4.572;2023-05-15T03:46:09;7.68;;;4.97;;
45103;SDS011;30865;51.288;4.572;2023-05-15T03:48:35;9.68;;;4.60;;
45103;SDS011;30865;51.288;4.572;2023-05-15T03:51:01;11.18;;;5.28;;
45103;SDS011;30865;51.288;4.572;2023-05-15T03:53:26;6.43;;;5.20;;
45103;SDS011;30865;51.288;4.572;2023-05-15T03:55:52;8.07;;;4.75;;
45103;SDS011;30865;51.288;4.572;2023-05-15T03:58:18;6.82;;;4.68;;
45103;SDS011;30865;51.288;4.572;2023-05-15T04:00:43;11.07;;;5.95;;
45103;SDS011;30865;51.288;4.572;2023-05-15T04:03:09;8.25;;;5.50;;
45103;SDS011;30865;51.288;4.572;2023-05-15T04:05:34;11.40;;;5.07;;
45103;SDS011;30865;51.288;4.572;2023-05-15T04:08:00;12.48;;;4.88;;
45103;SDS011;30865;51.288;4.572;2023-05-15T04:10:25;9.23;;;4.95;;
45103;SDS011;30865;51.288;4.572;2023-05-15T04:12:51;15.85;;;5.50;;
45103;SDS011;30865;51.288;4.572;2023-05-15T04:15:17;6.38;;;4.07;;
45103;SDS011;30865;51.288;4.572;2023-05-15T04:17:45;8.60;;;4.78;;
45103;SDS011;30865;51.288;4.572;2023-05-15T04:20:12;10.77;;;5.13;;
45103;SDS011;30865;51.288;4.572;2023-05-15T04:22:39;8.85;;;4.97;;
45103;SDS011;30865;51.288;4.572;2023-05-15T04:25:05;9.65;;;5.35;;
45103;SDS011;30865;51.288;4.572;2023-05-15T04:27:31;10.25;;;4.82;;
45103;SDS011;30865;51.288;4.572;2023-05-15T04:29:57;9.07;;;5.90;;
45103;SDS011;30865;51.288;4.572;2023-05-15T04:32:23;8.10;;;5.10;;
45103;SDS011;30865;51.288;4.572;2023-05-15T04:34:48;8.07;;;5.28;;
45103;SDS011;30865;51.288;4.572;2023-05-15T04:37:14;9.77;;;5.38;;
45103;SDS011;30865;51.288;4.572;2023-05-15T04:39:39;15.10;;;6.53;;
45103;SDS011;30865;51.288;4.572;2023-05-15T04:42:05;9.85;;;5.50;;
45103;SDS011;30865;51.288;4.572;2023-05-15T04:44:30;15.23;;;6.28;;
45103;SDS011;30865;51.288;4.572;2023-05-15T04:46:57;11.50;;;5.63;;
45103;SDS011;30865;51.288;4.572;2023-05-15T04:49:22;9.88;;;6.00;;
45103;SDS011;30865;51.288;4.572;2023-05-15T04:51:48;8.45;;;5.65;;
45103;SDS011;30865;51.288;4.572;2023-05-15T04:54:13;13.25;;;5.70;;
45103;SDS011;30865;51.288;4.572;2023-05-15T04:56:39;10.63;;;6.25;;
45103;SDS011;30865;51.288;4.572;2023-05-15T04:59:05;12.88;;;5.60;;
45103;SDS011;30865;51.288;4.572;2023-05-15T05:01:30;12.27;;;5.30;;
45103;SDS011;30865;51.288;4.572;2023-05-15T05:03:56;8.07;;;5.53;;
45103;SDS011;30865;51.288;4.572;2023-05-15T05:06:22;9.93;;;5.47;;
45103;SDS011;30865;51.288;4.572;2023-05-15T05:08:47;7.75;;;5.10;;
45103;SDS011;30865;51.288;4.572;2023-05-15T05:11:13;11.13;;;6.20;;
45103;SDS011;30865;51.288;4.572;2023-05-15T05:13:38;10.85;;;5.15;;
45103;SDS011;30865;51.288;4.572;2023-05-15T05:16:04;16.15;;;5.55;;
45103;SDS011;30865;51.288;4.572;2023-05-15T05:18:30;9.77;;;5.20;;
45103;SDS011;30865;51.288;4.572;2023-05-15T05:20:59;22.30;;;5.00;;
45103;SDS011;30865;51.288;4.572;2023-05-15T05:23:25;12.63;;;5.53;;
45103;SDS011;30865;51.288;4.572;2023-05-15T05:25:51;12.93;;;5.38;;
45103;SDS011;30865;51.288;4.572;2023-05-15T05:28:17;17.83;;;4.70;;
45103;SDS011;30865;51.288;4.572;2023-05-15T05:30:46;11.40;;;4.72;;
45103;SDS011;30865;51.288;4.572;2023-05-15T05:33:12;8.27;;;4.40;;
45103;SDS011;30865;51.288;4.572;2023-05-15T05:35:38;7.43;;;5.35;;
45103;SDS011;30865;51.288;4.572;2023-05-15T05:38:03;12.98;;;5.45;;
45103;SDS011;30865;51.288;4.572;2023-05-15T05:40:29;8.32;;;5.40;;
45103;SDS011;30865;51.288;4.572;2023-05-15T05:42:58;7.80;;;4.65;;
45103;SDS011;30865;51.288;4.572;2023-05-15T05:45:25;8.02;;;4.60;;
45103;SDS011;30865;51.288;4.572;2023-05-15T05:47:50;6.07;;;3.90;;
45103;SDS011;30865;51.288;4.572;2023-05-15T05:50:16;9.30;;;4.32;;
45103;SDS011;30865;51.288;4.572;2023-05-15T05:52:41;12.93;;;5.82;;
45103;SDS011;30865;51.288;4.572;2023-05-15T05:55:07;8.02;;;4.97;;
45103;SDS011;30865;51.288;4.572;2023-05-15T05:57:33;8.77;;;5.72;;
45103;SDS011;30865;51.288;4.572;2023-05-15T06:00:01;8.23;;;4.35;;
45103;SDS011;30865;51.288;4.572;2023-05-15T06:02:30;7.15;;;4.68;;
45103;SDS011;30865;51.288;4.572;2023-05-15T06:04:55;6.68;;;3.92;;
45103;SDS011;30865;51.288;4.572;2023-05-15T06:07:21;7.93;;;4.90;;
45103;SDS011;30865;51.288;4.572;2023-05-15T06:09:47;8.18;;;4.03;;
45103;SDS011;30865;51.288;4.572;2023-05-15T06:12:12;8.65;;;4.60;;
45103;SDS011;30865;51.288;4.572;2023-05-15T06:14:38;7.88;;;5.60;;
45103;SDS011;30865;51.288;4.572;2023-05-15T06:17:03;7.38;;;4.78;;
45103;SDS011;30865;51.288;4.572;2023-05-15T06:19:29;9.05;;;4.70;;
45103;SDS011;30865;51.288;4.572;2023-05-15T06:21:55;6.38;;;4.32;;
45103;SDS011;30865;51.288;4.572;2023-05-15T06:24:21;9.10;;;4.47;;
45103;SDS011;30865;51.288;4.572;2023-05-15T06:26:46;7.10;;;4.53;;
45103;SDS011;30865;51.288;4.572;2023-05-15T06:29:11;9.68;;;4.85;;
45103;SDS011;30865;51.288;4.572;2023-05-15T06:31:37;7.45;;;4.05;;
45103;SDS011;30865;51.288;4.572;2023-05-15T06:34:02;17.05;;;6.22;;
45103;SDS011;30865;51.288;4.572;2023-05-15T06:36:28;5.47;;;4.10;;
45103;SDS011;30865;51.288;4.572;2023-05-15T06:38:54;6.88;;;4.43;;
45103;SDS011;30865;51.288;4.572;2023-05-15T06:41:19;10.07;;;4.40;;
45103;SDS011;30865;51.288;4.572;2023-05-15T06:43:45;13.32;;;5.55;;
45103;SDS011;30865;51.288;4.572;2023-05-15T06:46:10;6.57;;;4.13;;
45103;SDS011;30865;51.288;4.572;2023-05-15T06:48:36;7.80;;;4.18;;
45103;SDS011;30865;51.288;4.572;2023-05-15T06:51:02;7.20;;;4.47;;
45103;SDS011;30865;51.288;4.572;2023-05-15T06:53:28;8.63;;;3.85;;
45103;SDS011;30865;51.288;4.572;2023-05-15T06:55:54;9.98;;;4.47;;
45103;SDS011;30865;51.288;4.572;2023-05-15T06:58:19;7.45;;;4.07;;
45103;SDS011;30865;51.288;4.572;2023-05-15T07:00:45;5.90;;;3.58;;
45103;SDS011;30865;51.288;4.572;2023-05-15T07:03:10;5.57;;;3.90;;
45103;SDS011;30865;51.288;4.572;2023-05-15T07:05:40;6.72;;;3.53;;
45103;SDS011;30865;51.288;4.572;2023-05-15T07:08:06;4.75;;;3.92;;
45103;SDS011;30865;51.288;4.572;2023-05-15T07:10:31;8.23;;;3.80;;
45103;SDS011;30865;51.288;4.572;2023-05-15T07:12:57;4.97;;;3.50;;
45103;SDS011;30865;51.288;4.572;2023-05-15T07:15:22;6.25;;;3.47;;
45103;SDS011;30865;51.288;4.572;2023-05-15T07:17:48;4.90;;;2.83;;
45103;SDS011;30865;51.288;4.572;2023-05-15T07:20:13;6.53;;;3.45;;
45103;SDS011;30865;51.288;4.572;2023-05-15T07:22:39;7.15;;;3.45;;
45103;SDS011;30865;51.288;4.572;2023-05-15T07:25:05;4.20;;;3.38;;
45103;SDS011;30865;51.288;4.572;2023-05-15T07:27:31;4.43;;;2.88;;
45103;SDS011;30865;51.288;4.572;2023-05-15T07:29:56;6.38;;;3.05;;
45103;SDS011;30865;51.288;4.572;2023-05-15T07:32:22;6.90;;;3.15;;
45103;SDS011;30865;51.288;4.572;2023-05-15T07:34:47;6.50;;;3.17;;
45103;SDS011;30865;51.288;4.572;2023-05-15T07:37:13;10.57;;;3.90;;
45103;SDS011;30865;51.288;4.572;2023-05-15T07:39:38;5.25;;;2.95;;
45103;SDS011;30865;51.288;4.572;2023-05-15T07:42:04;3.72;;;2.60;;
45103;SDS011;30865;51.288;4.572;2023-05-15T07:44:29;6.38;;;3.13;;
45103;SDS011;30865;51.288;4.572;2023-05-15T07:46:55;3.85;;;3.55;;
45103;SDS011;30865;51.288;4.572;2023-05-15T07:49:22;4.53;;;2.28;;
45103;SDS011;30865;51.288;4.572;2023-05-15T07:51:47;3.15;;;2.70;;
45103;SDS011;30865;51.288;4.572;2023-05-15T07:54:13;6.65;;;3.25;;
45103;SDS011;30865;51.288;4.572;2023-05-15T07:56:39;4.90;;;3.15;;
45103;SDS011;30865;51.288;4.572;2023-05-15T07:59:05;3.47;;;2.75;;
45103;SDS011;30865;51.288;4.572;2023-05-15T08:01:31;3.92;;;3.10;;
45103;SDS011;30865;51.288;4.572;2023-05-15T08:03:57;4.75;;;3.00;;
45103;SDS011;30865;51.288;4.572;2023-05-15T08:06:22;2.88;;;2.63;;
45103;SDS011;30865;51.288;4.572;2023-05-15T08:08:48;4.03;;;2.67;;
45103;SDS011;30865;51.288;4.572;2023-05-15T08:11:13;7.18;;;3.60;;
45103;SDS011;30865;51.288;4.572;2023-05-15T08:13:39;5.07;;;3.40;;
45103;SDS011;30865;51.288;4.572;2023-05-15T08:16:04;3.85;;;2.55;;
45103;SDS011;30865;51.288;4.572;2023-05-15T08:18:30;5.10;;;2.72;;
45103;SDS011;30865;51.288;4.572;2023-05-15T08:20:55;3.10;;;2.47;;
45103;SDS011;30865;51.288;4.572;2023-05-15T08:23:21;4.75;;;2.47;;
45103;SDS011;30865;51.288;4.572;2023-05-15T08:25:46;4.32;;;2.28;;
45103;SDS011;30865;51.288;4.572;2023-05-15T08:28:12;7.40;;;3.15;;
45103;SDS011;30865;51.288;4.572;2023-05-15T08:30:38;2.60;;;2.35;;
45103;SDS011;30865;51.288;4.572;2023-05-15T08:33:04;4.38;;;2.17;;
45103;SDS011;30865;51.288;4.572;2023-05-15T08:35:29;4.85;;;2.65;;
45103;SDS011;30865;51.288;4.572;2023-05-15T08:37:56;4.50;;;2.33;;
45103;SDS011;30865;51.288;4.572;2023-05-15T08:40:22;5.47;;;2.90;;
45103;SDS011;30865;51.288;4.572;2023-05-15T08:42:52;4.25;;;2.33;;
45103;SDS011;30865;51.288;4.572;2023-05-15T08:45:19;5.03;;;2.47;;
45103;SDS011;30865;51.288;4.572;2023-05-15T08:47:45;7.85;;;2.80;;
45103;SDS011;30865;51.288;4.572;2023-05-15T08:50:11;5.53;;;2.30;;
45103;SDS011;30865;51.288;4.572;2023-05-15T08:52:43;4.60;;;2.72;;
45103;SDS011;30865;51.288;4.572;2023-05-15T08:55:11;3.85;;;2.10;;
45103;SDS011;30865;51.288;4.572;2023-05-15T08:57:40;2.77;;;2.40;;
45103;SDS011;30865;51.288;4.572;2023-05-15T09:00:06;3.28;;;2.47;;
45103;SDS011;30865;51.288;4.572;2023-05-15T09:02:33;4.32;;;2.78;;
45103;SDS011;30865;51.288;4.572;2023-05-15T09:05:03;7.40;;;2.67;;
45103;SDS011;30865;51.288;4.572;2023-05-15T09:07:40;3.63;;;2.90;;
45103;SDS011;30865;51.288;4.572;2023-05-15T09:10:15;4.32;;;2.40;;
45103;SDS011;30865;51.288;4.572;2023-05-15T09:12:41;5.75;;;3.10;;
45103;SDS011;30865;51.288;4.572;2023-05-15T09:15:09;4.38;;;2.78;;
45103;SDS011;30865;51.288;4.572;2023-05-15T09:17:41;2.92;;;2.50;;
45103;SDS011;30865;51.288;4.572;2023-05-15T09:22:56;4.20;;;2.90;;
45103;SDS011;30865;51.288;4.572;2023-05-15T09:25:36;3.53;;;2.72;;
45103;SDS011;30865;51.288;4.572;2023-05-15T09:28:08;3.40;;;2.40;;
45103;SDS011;30865;51.288;4.572;2023-05-15T09:30:49;3.65;;;2.30;;
45103;SDS011;30865;51.288;4.572;2023-05-15T09:33:31;3.30;;;2.63;;
45103;SDS011;30865;51.288;4.572;2023-05-15T09:35:58;4.45;;;2.67;;
45103;SDS011;30865;51.288;4.572;2023-05-15T09:38:24;4.30;;;2.42;;
45103;SDS011;30865;51.288;4.572;2023-05-15T09:40:50;5.22;;;2.63;;
45103;SDS011;30865;51.288;4.572;2023-05-15T09:43:28;4.88;;;3.17;;
45103;SDS011;30865;51.288;4.572;2023-05-15T09:45:58;5.18;;;3.10;;
45103;SDS011;30865;51.288;4.572;2023-05-15T09:48:24;4.20;;;2.63;;
45103;SDS011;30865;51.288;4.572;2023-05-15T09:50:49;4.18;;;2.97;;
45103;SDS011;30865;51.288;4.572;2023-05-15T09:53:15;5.25;;;2.65;;
45103;SDS011;30865;51.288;4.572;2023-05-15T09:55:41;7.85;;;2.70;;
45103;SDS011;30865;51.288;4.572;2023-05-15T09:58:08;2.53;;;2.30;;
45103;SDS011;30865;51.288;4.572;2023-05-15T10:00:36;3.35;;;2.70;;
45103;SDS011;30865;51.288;4.572;2023-05-15T10:03:03;6.07;;;2.72;;
45103;SDS011;30865;51.288;4.572;2023-05-15T10:05:30;4.75;;;2.60;;
45103;SDS011;30865;51.288;4.572;2023-05-15T10:07:56;4.40;;;2.35;;
45103;SDS011;30865;51.288;4.572;2023-05-15T10:10:23;4.72;;;2.35;;
45103;SDS011;30865;51.288;4.572;2023-05-15T10:12:50;5.78;;;3.10;;
45103;SDS011;30865;51.288;4.572;2023-05-15T10:15:17;8.95;;;2.80;;
45103;SDS011;30865;51.288;4.572;2023-05-15T10:17:48;3.47;;;2.38;;
45103;SDS011;30865;51.288;4.572;2023-05-15T10:20:18;3.15;;;2.63;;
45103;SDS011;30865;51.288;4.572;2023-05-15T10:22:48;4.40;;;2.60;;
45103;SDS011;30865;51.288;4.572;2023-05-15T10:28:07;9.10;;;3.15;;
45103;SDS011;30865;51.288;4.572;2023-05-15T10:30:34;3.05;;;2.30;;
45103;SDS011;30865;51.288;4.572;2023-05-15T10:33:00;6.60;;;2.25;;
45103;SDS011;30865;51.288;4.572;2023-05-15T10:35:28;4.38;;;2.45;;
45103;SDS011;30865;51.288;4.572;2023-05-15T10:37:54;4.93;;;2.50;;
45103;SDS011;30865;51.288;4.572;2023-05-15T10:40:21;4.55;;;2.28;;
45103;SDS011;30865;51.288;4.572;2023-05-15T10:42:48;3.25;;;2.17;;
45103;SDS011;30865;51.288;4.572;2023-05-15T10:45:14;2.40;;;2.20;;
45103;SDS011;30865;51.288;4.572;2023-05-15T10:47:40;6.60;;;2.58;;
45103;SDS011;30865;51.288;4.572;2023-05-15T10:50:08;4.80;;;1.70;;
45103;SDS011;30865;51.288;4.572;2023-05-15T10:52:35;3.33;;;2.58;;
45103;SDS011;30865;51.288;4.572;2023-05-15T10:55:04;3.10;;;2.15;;
45103;SDS011;30865;51.288;4.572;2023-05-15T10:57:31;4.15;;;2.28;;
45103;SDS011;30865;51.288;4.572;2023-05-15T10:59:56;3.00;;;2.30;;
45103;SDS011;30865;51.288;4.572;2023-05-15T11:02:23;3.72;;;2.00;;
45103;SDS011;30865;51.288;4.572;2023-05-15T11:04:57;2.22;;;2.03;;
45103;SDS011;30865;51.288;4.572;2023-05-15T11:07:25;3.50;;;2.00;;
45103;SDS011;30865;51.288;4.572;2023-05-15T11:09:52;2.20;;;1.65;;
45103;SDS011;30865;51.288;4.572;2023-05-15T11:12:18;2.35;;;2.00;;
45103;SDS011;30865;51.288;4.572;2023-05-15T11:17:18;1.73;;;1.63;;
45103;SDS011;30865;51.288;4.572;2023-05-15T11:22:21;2.25;;;2.05;;
45103;SDS011;30865;51.288;4.572;2023-05-15T11:24:57;2.65;;;1.85;;
45103;SDS011;30865;51.288;4.572;2023-05-15T11:30:21;6.25;;;2.10;;
45103;SDS011;30865;51.288;4.572;2023-05-15T11:32:58;3.45;;;2.20;;
45103;SDS011;30865;51.288;4.572;2023-05-15T11:35:32;8.65;;;3.05;;
45103;SDS011;30865;51.288;4.572;2023-05-15T11:48:31;4.18;;;2.55;;
45103;SDS011;30865;51.288;4.572;2023-05-15T11:51:13;2.47;;;2.15;;
45103;SDS011;30865;51.288;4.572;2023-05-15T11:53:50;2.58;;;2.00;;
45103;SDS011;30865;51.288;4.572;2023-05-15T11:56:19;3.85;;;2.05;;
45103;SDS011;30865;51.288;4.572;2023-05-15T11:58:47;3.63;;;2.20;;
45103;SDS011;30865;51.288;4.572;2023-05-15T12:01:18;2.00;;;1.80;;
45103;SDS011;30865;51.288;4.572;2023-05-15T12:03:45;2.92;;;2.38;;
45103;SDS011;30865;51.288;4.572;2023-05-15T12:06:12;2.97;;;1.88;;
45103;SDS011;30865;51.288;4.572;2023-05-15T12:08:38;2.85;;;2.55;;
45103;SDS011;30865;51.288;4.572;2023-05-15T12:11:05;2.50;;;2.22;;
45103;SDS011;30865;51.288;4.572;2023-05-15T12:13:41;2.67;;;1.73;;
45103;SDS011;30865;51.288;4.572;2023-05-15T12:16:07;1.85;;;1.65;;
45103;SDS011;30865;51.288;4.572;2023-05-15T12:18:32;7.72;;;1.90;;
45103;SDS011;30865;51.288;4.572;2023-05-15T12:20:58;4.00;;;2.08;;
45103;SDS011;30865;51.288;4.572;2023-05-15T12:23:24;4.40;;;2.78;;
45103;SDS011;30865;51.288;4.572;2023-05-15T12:25:52;3.78;;;2.00;;
45103;SDS011;30865;51.288;4.572;2023-05-15T12:28:24;3.03;;;2.42;;
45103;SDS011;30865;51.288;4.572;2023-05-15T12:30:50;3.83;;;1.67;;
45103;SDS011;30865;51.288;4.572;2023-05-15T12:33:16;2.75;;;2.45;;
45103;SDS011;30865;51.288;4.572;2023-05-15T12:35:43;2.28;;;2.08;;
45103;SDS011;30865;51.288;4.572;2023-05-15T12:38:16;3.90;;;2.08;;
45103;SDS011;30865;51.288;4.572;2023-05-15T12:40:42;3.00;;;2.15;;
45103;SDS011;30865;51.288;4.572;2023-05-15T12:43:10;2.85;;;2.10;;
45103;SDS011;30865;51.288;4.572;2023-05-15T12:45:37;6.07;;;2.10;;
45103;SDS011;30865;51.288;4.572;2023-05-15T12:48:04;3.13;;;2.10;;
45103;SDS011;30865;51.288;4.572;2023-05-15T12:50:31;6.85;;;2.08;;
45103;SDS011;30865;51.288;4.572;2023-05-15T12:53:00;6.28;;;2.05;;
45103;SDS011;30865;51.288;4.572;2023-05-15T12:55:34;15.60;;;2.85;;
45103;SDS011;30865;51.288;4.572;2023-05-15T12:58:02;7.88;;;2.17;;
45103;SDS011;30865;51.288;4.572;2023-05-15T13:00:32;3.45;;;2.47;;
45103;SDS011;30865;51.288;4.572;2023-05-15T13:03:00;2.90;;;2.00;;
45103;SDS011;30865;51.288;4.572;2023-05-15T13:05:26;2.63;;;2.05;;
45103;SDS011;30865;51.288;4.572;2023-05-15T13:07:52;4.18;;;1.90;;
45103;SDS011;30865;51.288;4.572;2023-05-15T13:10:22;3.00;;;1.98;;
45103;SDS011;30865;51.288;4.572;2023-05-15T13:12:49;6.68;;;2.05;;
45103;SDS011;30865;51.288;4.572;2023-05-15T13:15:27;4.25;;;2.10;;
45103;SDS011;30865;51.288;4.572;2023-05-15T13:18:16;3.03;;;1.80;;
45103;SDS011;30865;51.288;4.572;2023-05-15T13:20:44;3.30;;;1.85;;
45103;SDS011;30865;51.288;4.572;2023-05-15T13:23:10;2.05;;;1.73;;
45103;SDS011;30865;51.288;4.572;2023-05-15T13:25:38;2.55;;;2.35;;
45103;SDS011;30865;51.288;4.572;2023-05-15T13:28:04;4.60;;;1.67;;
45103;SDS011;30865;51.288;4.572;2023-05-15T13:30:31;2.05;;;1.85;;
45103;SDS011;30865;51.288;4.572;2023-05-15T13:32:58;6.13;;;1.90;;
45103;SDS011;30865;51.288;4.572;2023-05-15T13:35:24;2.30;;;2.10;;
45103;SDS011;30865;51.288;4.572;2023-05-15T13:37:50;3.03;;;2.15;;
45103;SDS011;30865;51.288;4.572;2023-05-15T13:40:16;4.57;;;2.67;;
45103;SDS011;30865;51.288;4.572;2023-05-15T13:42:42;3.47;;;2.58;;
45103;SDS011;30865;51.288;4.572;2023-05-15T13:45:08;3.13;;;2.53;;
45103;SDS011;30865;51.288;4.572;2023-05-15T13:47:47;3.85;;;2.53;;
45103;SDS011;30865;51.288;4.572;2023-05-15T13:50:22;2.63;;;2.17;;
45103;SDS011;30865;51.288;4.572;2023-05-15T13:52:47;23.27;;;2.50;;
45103;SDS011;30865;51.288;4.572;2023-05-15T13:55:13;5.25;;;2.65;;
45103;SDS011;30865;51.288;4.572;2023-05-15T13:57:39;11.13;;;3.25;;
45103;SDS011;30865;51.288;4.572;2023-05-15T14:00:06;5.90;;;2.35;;
45103;SDS011;30865;51.288;4.572;2023-05-15T14:02:36;2.92;;;2.60;;
45103;SDS011;30865;51.288;4.572;2023-05-15T14:05:01;3.53;;;2.30;;
45103;SDS011;30865;51.288;4.572;2023-05-15T14:07:28;4.20;;;2.55;;
45103;SDS011;30865;51.288;4.572;2023-05-15T14:09:54;2.92;;;2.17;;
45103;SDS011;30865;51.288;4.572;2023-05-15T14:12:19;5.35;;;2.75;;
45103;SDS011;30865;51.288;4.572;2023-05-15T14:14:46;3.25;;;2.72;;
45103;SDS011;30865;51.288;4.572;2023-05-15T14:17:12;2.90;;;2.60;;
45103;SDS011;30865;51.288;4.572;2023-05-15T14:19:38;3.28;;;2.30;;
45103;SDS011;30865;51.288;4.572;2023-05-15T14:22:04;6.25;;;2.88;;
45103;SDS011;30865;51.288;4.572;2023-05-15T14:24:30;4.25;;;3.38;;
45103;SDS011;30865;51.288;4.572;2023-05-15T14:26:55;5.15;;;2.47;;
45103;SDS011;30865;51.288;4.572;2023-05-15T14:29:21;3.22;;;2.30;;
45103;SDS011;30865;51.288;4.572;2023-05-15T14:31:46;3.10;;;2.30;;
45103;SDS011;30865;51.288;4.572;2023-05-15T14:34:13;3.58;;;2.78;;
45103;SDS011;30865;51.288;4.572;2023-05-15T14:36:39;3.67;;;2.60;;
45103;SDS011;30865;51.288;4.572;2023-05-15T14:39:05;3.65;;;2.85;;
45103;SDS011;30865;51.288;4.572;2023-05-15T14:41:30;2.95;;;2.60;;
45103;SDS011;30865;51.288;4.572;2023-05-15T14:43:56;2.90;;;2.63;;
45103;SDS011;30865;51.288;4.572;2023-05-15T14:46:21;2.88;;;2.10;;
45103;SDS011;30865;51.288;4.572;2023-05-15T14:48:47;6.72;;;2.60;;
45103;SDS011;30865;51.288;4.572;2023-05-15T14:51:12;3.90;;;2.47;;
45103;SDS011;30865;51.288;4.572;2023-05-15T14:53:38;4.05;;;2.20;;
45103;SDS011;30865;51.288;4.572;2023-05-15T14:56:03;3.25;;;2.55;;
45103;SDS011;30865;51.288;4.572;2023-05-15T14:58:29;3.63;;;2.80;;
45103;SDS011;30865;51.288;4.572;2023-05-15T15:00:56;3.38;;;2.78;;
45103;SDS011;30865;51.288;4.572;2023-05-15T15:03:21;7.20;;;2.90;;
45103;SDS011;30865;51.288;4.572;2023-05-15T15:05:48;14.57;;;4.35;;
45103;SDS011;30865;51.288;4.572;2023-05-15T15:08:15;4.80;;;2.80;;
45103;SDS011;30865;51.288;4.572;2023-05-15T15:10:40;7.80;;;2.83;;
45103;SDS011;30865;51.288;4.572;2023-05-15T15:13:07;2.85;;;2.58;;
45103;SDS011;30865;51.288;4.572;2023-05-15T15:15:34;10.55;;;2.90;;
45103;SDS011;30865;51.288;4.572;2023-05-15T15:18:00;5.55;;;3.45;;
45103;SDS011;30865;51.288;4.572;2023-05-15T15:20:26;1.98;;;1.77;;
45103;SDS011;30865;51.288;4.572;2023-05-15T15:22:52;4.10;;;2.50;;